Time;durP1;ratioP1;P1;durP2;ratioP2;P2;SDS_P1;SDS_P2;PMS_P1;PMS_P2;Temp;Humidity;BMP_temperature;BMP_pressure;BME280_temperature;BME280_humidity;BME280_pressure;Samples;Min_cycle;Max_cycle;Signal;HPM_P1;HPM_P2
2020/12/21 00:01:45;;;;;;;10.98;6.38;;;8.90;99.90;;;;;;5050748;28;20421;-53
2020/12/21 00:04:11;;;;;;;9.95;5.65;;;8.80;99.90;;;;;;5052262;28;20397;-53
2020/12/21 00:06:37;;;;;;;9.20;5.63;;;8.80;99.90;;;;;;5033483;28;20401;-52
2020/12/21 00:09:04;;;;;;;9.90;5.40;;;8.80;99.90;;;;;;5051177;28;20405;-52
2020/12/21 00:11:37;;;;;;;9.17;5.80;;;8.80;99.90;;;;;;5051283;28;20408;-52
2020/12/21 00:14:08;;;;;;;9.30;4.90;;;8.90;99.90;;;;;;5050916;28;20455;-52
2020/12/21 00:16:44;;;;;;;8.18;5.32;;;8.90;99.90;;;;;;5052206;28;20377;-52
2020/12/21 00:19:11;;;;;;;8.00;5.37;;;9.00;99.90;;;;;;5050915;28;20454;-52
2020/12/21 00:21:38;;;;;;;10.02;5.70;;;9.00;99.90;;;;;;5051568;28;20492;-52
2020/12/21 00:24:04;;;;;;;8.07;4.88;;;9.00;99.90;;;;;;5052663;28;20586;-52
2020/12/21 00:26:30;;;;;;;7.38;4.80;;;9.00;99.90;;;;;;5050079;28;20394;-53
2020/12/21 00:28:56;;;;;;;9.75;4.88;;;9.10;99.90;;;;;;5052125;28;20388;-52
2020/12/21 00:31:23;;;;;;;9.90;5.60;;;9.10;99.90;;;;;;5051122;28;20871;-52
2020/12/21 00:33:49;;;;;;;10.13;5.60;;;9.30;99.90;;;;;;5051083;28;20437;-52
2020/12/21 00:36:15;;;;;;;10.30;4.68;;;9.10;99.90;;;;;;5052006;28;20770;-53
2020/12/21 00:38:41;;;;;;;8.50;5.18;;;9.00;99.90;;;;;;5050173;28;20488;-53
2020/12/21 00:41:08;;;;;;;8.13;5.50;;;9.00;99.90;;;;;;5051864;28;20493;-52
2020/12/21 00:43:34;;;;;;;9.55;6.10;;;9.00;99.90;;;;;;5049843;28;20443;-52
2020/12/21 00:45:59;;;;;;;8.18;5.38;;;9.00;99.90;;;;;;5052099;28;20413;-53
2020/12/21 00:48:28;;;;;;;9.17;6.40;;;9.00;99.90;;;;;;5050407;28;20397;-56
2020/12/21 00:50:54;;;;;;;10.60;6.80;;;9.00;99.90;;;;;;5051589;28;20401;-52
2020/12/21 00:53:20;;;;;;;9.02;5.85;;;9.00;99.90;;;;;;5052220;28;20393;-52
2020/12/21 00:55:45;;;;;;;10.17;6.47;;;9.00;99.90;;;;;;5048411;28;20393;-53
2020/12/21 00:58:11;;;;;;;11.40;7.35;;;9.00;99.90;;;;;;5051700;28;20775;-52
2020/12/21 01:00:37;;;;;;;11.47;6.70;;;9.00;99.90;;;;;;5049293;28;20882;-53
2020/12/21 01:03:02;;;;;;;11.02;6.43;;;8.90;99.90;;;;;;5051062;28;20385;-52
2020/12/21 01:05:28;;;;;;;10.23;6.63;;;8.90;99.90;;;;;;5049972;28;20405;-56
2020/12/21 01:07:53;;;;;;;9.40;6.00;;;8.90;99.90;;;;;;5050454;28;20389;-52
2020/12/21 01:10:19;;;;;;;10.73;6.33;;;8.90;99.90;;;;;;5050653;28;20389;-52
2020/12/21 01:12:45;;;;;;;8.80;5.93;;;8.90;99.90;;;;;;5031714;28;20409;-52
2020/12/21 01:15:11;;;;;;;10.73;5.90;;;8.80;99.90;;;;;;5050657;28;20738;-53
2020/12/21 01:17:36;;;;;;;11.40;6.80;;;8.80;99.90;;;;;;5049015;28;20393;-52
2020/12/21 01:20:04;;;;;;;12.70;6.50;;;8.90;99.90;;;;;;5051189;28;20413;-53
2020/12/21 01:22:29;;;;;;;10.80;6.80;;;8.70;99.90;;;;;;5049348;28;20491;-55
2020/12/21 01:24:55;;;;;;;11.43;6.83;;;8.70;99.90;;;;;;5050736;28;20456;-52
2020/12/21 01:27:21;;;;;;;10.35;6.50;;;8.70;99.90;;;;;;5049974;28;20428;-52
2020/12/21 01:29:46;;;;;;;10.17;6.50;;;8.50;99.90;;;;;;5050360;28;20656;-53
2020/12/21 01:32:12;;;;;;;10.15;6.60;;;8.40;99.90;;;;;;5050503;28;20492;-52
2020/12/21 01:34:38;;;;;;;13.27;6.90;;;8.30;99.90;;;;;;5047785;28;20409;-53
2020/12/21 01:37:04;;;;;;;11.75;6.80;;;8.30;99.90;;;;;;5051196;28;20404;-52
2020/12/21 01:39:30;;;;;;;9.97;6.50;;;8.50;99.90;;;;;;5048850;28;20942;-56
2020/12/21 01:41:55;;;;;;;9.60;6.20;;;8.50;99.90;;;;;;5050469;28;20462;-55
2020/12/21 01:44:21;;;;;;;9.07;5.47;;;8.60;99.90;;;;;;5050438;28;20420;-52
2020/12/21 01:46:47;;;;;;;9.20;5.70;;;8.70;99.90;;;;;;5050178;28;20504;-53
2020/12/21 01:49:13;;;;;;;8.65;5.60;;;8.70;99.90;;;;;;5049697;28;20394;-53
2020/12/21 01:51:38;;;;;;;8.87;5.37;;;8.60;99.90;;;;;;5049773;28;20447;-52
2020/12/21 01:54:05;;;;;;;8.05;4.72;;;8.40;99.90;;;;;;5050358;28;20392;-53
2020/12/21 01:56:31;;;;;;;8.90;4.90;;;8.40;99.90;;;;;;5048806;28;20806;-55
2020/12/21 01:58:57;;;;;;;8.20;5.00;;;8.30;99.90;;;;;;5050901;28;20381;-52
2020/12/21 02:01:24;;;;;;;9.83;5.03;;;8.40;99.90;;;;;;5049831;28;20925;-53
2020/12/21 02:03:50;;;;;;;9.90;5.20;;;8.40;99.90;;;;;;5050041;28;20480;-53
2020/12/21 02:06:19;;;;;;;8.32;4.97;;;8.30;99.90;;;;;;5050027;28;20480;-53
2020/12/21 02:08:47;;;;;;;7.30;4.40;;;8.30;99.90;;;;;;5045244;28;20401;-52
2020/12/21 02:11:13;;;;;;;6.65;4.30;;;8.20;99.90;;;;;;5050081;28;20385;-53
2020/12/21 02:13:38;;;;;;;6.40;3.90;;;8.20;99.90;;;;;;5048483;28;20901;-53
2020/12/21 02:16:04;;;;;;;8.10;4.20;;;8.10;99.90;;;;;;5050229;28;20465;-52
2020/12/21 02:18:30;;;;;;;6.35;3.88;;;8.10;99.90;;;;;;5048790;28;20512;-55
2020/12/21 02:20:55;;;;;;;6.47;3.80;;;8.00;99.90;;;;;;5050101;28;20401;-52
2020/12/21 02:23:21;;;;;;;6.60;3.70;;;7.90;99.90;;;;;;5049109;28;20444;-52
2020/12/21 02:25:47;;;;;;;8.52;3.95;;;7.90;99.90;;;;;;5049413;28;20405;-53
2020/12/21 02:28:13;;;;;;;7.23;3.87;;;8.00;99.90;;;;;;5050145;28;20460;-52
2020/12/21 02:30:39;;;;;;;9.80;3.60;;;8.20;99.90;;;;;;5047864;28;20497;-52
2020/12/21 02:33:06;;;;;;;5.75;3.55;;;8.20;99.90;;;;;;5049747;28;20816;-52
2020/12/21 02:35:35;;;;;;;6.32;3.72;;;8.20;99.90;;;;;;5048390;28;20874;-55
2020/12/21 02:38:06;;;;;;;7.22;4.60;;;8.20;99.90;;;;;;5049860;28;20390;-52
2020/12/21 02:40:34;;;;;;;7.37;4.30;;;8.30;99.90;;;;;;5048614;28;20399;-53
2020/12/21 02:42:59;;;;;;;8.27;4.18;;;8.30;99.90;;;;;;5049115;28;20481;-52
2020/12/21 02:45:25;;;;;;;8.03;4.80;;;8.30;99.90;;;;;;5049834;28;20472;-52
2020/12/21 02:47:51;;;;;;;8.43;4.53;;;8.10;99.90;;;;;;5047615;28;20480;-52
2020/12/21 02:50:16;;;;;;;8.77;5.10;;;7.90;99.90;;;;;;5050065;28;20386;-52
2020/12/21 02:52:42;;;;;;;12.07;6.60;;;7.70;99.90;;;;;;5047779;28;20404;-53
2020/12/21 02:55:08;;;;;;;11.13;7.20;;;7.60;99.90;;;;;;5049715;28;20381;-52
2020/12/21 02:57:33;;;;;;;15.98;8.32;;;7.50;99.90;;;;;;5047433;28;20397;-52
2020/12/21 02:59:59;;;;;;;16.63;11.38;;;7.40;99.90;;;;;;5049814;28;20381;-52
2020/12/21 03:02:24;;;;;;;18.20;12.00;;;7.40;99.90;;;;;;5048379;28;20886;-52
2020/12/21 03:04:50;;;;;;;17.98;11.20;;;7.40;99.90;;;;;;5048480;28;20858;-52
2020/12/21 03:07:16;;;;;;;19.50;11.70;;;8.00;99.90;;;;;;5048679;28;20404;-53
2020/12/21 03:09:41;;;;;;;22.08;13.60;;;7.50;99.90;;;;;;5048007;28;20393;-53
2020/12/21 03:12:07;;;;;;;19.57;12.90;;;7.50;99.90;;;;;;5049359;28;20448;-52
2020/12/21 03:14:32;;;;;;;20.23;13.23;;;7.40;99.90;;;;;;5049196;28;20369;-52
2020/12/21 03:16:58;;;;;;;20.17;13.20;;;7.40;99.90;;;;;;5048210;28;20463;-52
2020/12/21 03:19:24;;;;;;;22.23;14.40;;;7.50;99.90;;;;;;5050094;28;20401;-54
2020/12/21 03:21:49;;;;;;;19.80;13.27;;;7.30;99.90;;;;;;5052144;28;20405;-53
2020/12/21 03:24:15;;;;;;;19.30;13.63;;;7.30;99.90;;;;;;5053887;28;20401;-53
2020/12/21 03:26:40;;;;;;;19.67;13.53;;;7.30;99.90;;;;;;5051489;28;20394;-53
2020/12/21 03:29:06;;;;;;;22.05;14.48;;;7.20;99.90;;;;;;5053326;28;20392;-53
2020/12/21 03:31:32;;;;;;;20.80;14.40;;;7.10;99.90;;;;;;5052332;28;20483;-56
2020/12/21 03:33:57;;;;;;;20.27;12.68;;;7.10;99.90;;;;;;5052354;28;20409;-52
2020/12/21 03:36:23;;;;;;;19.10;11.87;;;7.00;99.90;;;;;;5052396;28;20794;-53
2020/12/21 03:38:48;;;;;;;22.73;12.70;;;7.00;99.90;;;;;;5052314;28;20381;-53
2020/12/21 03:41:14;;;;;;;18.20;11.23;;;7.10;99.90;;;;;;5053255;28;20758;-53
2020/12/21 03:43:40;;;;;;;20.00;11.70;;;7.00;99.90;;;;;;5051046;28;20401;-53
2020/12/21 03:46:06;;;;;;;18.63;12.17;;;7.00;99.90;;;;;;5053072;28;20401;-53
2020/12/21 03:48:31;;;;;;;20.30;12.27;;;7.00;99.90;;;;;;5052603;28;20389;-56
2020/12/21 03:50:57;;;;;;;18.93;11.60;;;6.90;99.90;;;;;;5051339;28;20401;-53
2020/12/21 03:53:22;;;;;;;20.15;12.02;;;6.90;99.90;;;;;;5053447;28;20377;-52
2020/12/21 03:55:48;;;;;;;18.83;11.57;;;6.90;99.90;;;;;;5050795;28;20408;-53
2020/12/21 03:58:14;;;;;;;23.02;12.63;;;6.90;99.90;;;;;;5052882;28;20885;-53
2020/12/21 04:00:39;;;;;;;24.43;13.17;;;6.80;99.90;;;;;;5050995;28;20393;-53
2020/12/21 04:03:05;;;;;;;18.60;12.17;;;6.70;99.90;;;;;;5052761;28;20386;-53
2020/12/21 04:05:30;;;;;;;20.17;12.57;;;6.50;99.90;;;;;;5052571;28;20855;-56
2020/12/21 04:07:56;;;;;;;22.33;12.53;;;6.40;99.90;;;;;;5051415;28;20392;-52
2020/12/21 04:10:22;;;;;;;19.40;12.43;;;6.40;99.90;;;;;;5052544;28;20395;-53
2020/12/21 04:12:47;;;;;;;21.17;13.00;;;6.30;99.90;;;;;;5050849;28;21185;-53
2020/12/21 04:15:13;;;;;;;21.92;13.77;;;6.20;99.90;;;;;;5052532;28;20382;-52
2020/12/21 04:17:38;;;;;;;23.20;13.37;;;6.20;99.90;;;;;;5051620;28;20396;-53
2020/12/21 04:20:04;;;;;;;21.63;13.63;;;6.20;99.90;;;;;;5051833;28;20758;-52
2020/12/21 04:22:30;;;;;;;26.90;15.70;;;6.30;99.90;;;;;;5051767;28;20487;-55
2020/12/21 04:24:55;;;;;;;24.30;15.27;;;6.40;99.90;;;;;;5050916;28;20866;-53
2020/12/21 04:27:21;;;;;;;23.55;14.52;;;6.40;99.90;;;;;;5052225;28;20373;-52
2020/12/21 04:29:47;;;;;;;25.93;15.90;;;6.30;99.90;;;;;;5050840;28;20855;-53
2020/12/21 04:32:12;;;;;;;25.92;16.30;;;6.20;99.90;;;;;;5050697;28;20424;-53
2020/12/21 04:34:38;;;;;;;25.63;15.83;;;6.30;99.90;;;;;;5052209;28;20439;-52
2020/12/21 04:37:04;;;;;;;27.37;17.20;;;6.40;99.90;;;;;;5050825;28;20905;-52
2020/12/21 04:39:31;;;;;;;29.20;16.40;;;6.40;99.90;;;;;;5051936;28;20382;-56
2020/12/21 04:41:58;;;;;;;25.13;16.95;;;6.30;99.90;;;;;;5050483;28;20863;-53
2020/12/21 04:44:25;;;;;;;29.85;16.60;;;6.50;99.90;;;;;;5052456;28;20496;-52
2020/12/21 04:46:57;;;;;;;26.02;16.73;;;6.20;99.90;;;;;;5050495;28;21083;-53
2020/12/21 04:49:24;;;;;;;23.98;15.27;;;6.20;99.90;;;;;;5051229;28;20399;-54
2020/12/21 04:51:50;;;;;;;23.57;15.03;;;6.10;99.90;;;;;;5049787;28;20531;-52
2020/12/21 04:54:17;;;;;;;22.58;14.05;;;6.20;99.90;;;;;;5051424;28;20381;-52
2020/12/21 04:56:43;;;;;;;26.33;16.00;;;6.20;99.90;;;;;;5050129;28;20447;-54
2020/12/21 04:59:10;;;;;;;25.83;16.10;;;6.30;99.90;;;;;;5050949;28;20389;-53
2020/12/21 05:01:35;;;;;;;25.47;16.03;;;6.30;99.90;;;;;;5050983;28;20902;-53
2020/12/21 05:04:02;;;;;;;27.67;16.73;;;6.40;99.90;;;;;;5051883;28;20891;-53
2020/12/21 05:06:27;;;;;;;28.25;16.35;;;6.40;99.90;;;;;;5050188;28;20767;-54
2020/12/21 05:09:09;;;;;;;27.75;16.10;;;6.40;99.90;;;;;;5050875;28;20393;-53
2020/12/21 05:11:38;;;;;;;25.80;15.55;;;6.40;99.90;;;;;;5027974;28;20418;-53
2020/12/21 05:14:12;;;;;;;24.50;15.02;;;6.40;99.90;;;;;;5050199;28;20437;-53
2020/12/21 05:16:39;;;;;;;26.35;16.08;;;6.40;99.90;;;;;;5050333;28;20389;-53
2020/12/21 05:19:07;;;;;;;26.00;15.90;;;6.90;99.90;;;;;;5051063;28;20863;-54
2020/12/21 05:21:33;;;;;;;26.00;16.08;;;6.40;99.90;;;;;;5047338;28;20752;-56
2020/12/21 05:24:01;;;;;;;27.63;16.40;;;6.50;99.90;;;;;;5049188;28;20394;-53
2020/12/21 05:26:31;;;;;;;24.48;14.95;;;6.50;99.90;;;;;;5051050;28;20374;-53
2020/12/21 05:28:58;;;;;;;25.30;14.80;;;4.30;99.90;;;;;;5048187;28;20838;-53
2020/12/21 05:31:24;;;;;;;24.08;15.10;;;6.50;99.90;;;;;;5049147;28;20405;-53
2020/12/21 05:33:51;;;;;;;25.20;15.23;;;6.50;99.90;;;;;;5049116;28;20439;-53
2020/12/21 05:36:23;;;;;;;24.33;14.55;;;6.60;99.90;;;;;;5049241;28;20400;-53
2020/12/21 05:39:04;;;;;;;25.73;16.50;;;6.70;99.90;;;;;;5048899;28;20410;-54
2020/12/21 05:41:30;;;;;;;24.75;15.40;;;6.80;99.90;;;;;;5049762;28;20410;-55
2020/12/21 05:44:03;;;;;;;23.88;16.02;;;7.00;99.90;;;;;;5048334;28;20421;-53
2020/12/21 05:46:29;;;;;;;25.15;15.07;;;6.90;99.90;;;;;;5048868;28;20378;-53
2020/12/21 05:48:57;;;;;;;28.35;14.98;;;7.30;99.90;;;;;;5048232;28;20776;-53
2020/12/21 05:51:23;;;;;;;23.37;14.70;;;6.70;99.90;;;;;;5050974;28;20386;-52
2020/12/21 05:53:55;;;;;;;22.65;14.85;;;6.80;99.90;;;;;;5048114;28;20405;-53
2020/12/21 05:56:22;;;;;;;25.23;15.40;;;6.70;99.90;;;;;;5050278;28;20929;-53
2020/12/21 05:58:49;;;;;;;24.70;15.23;;;6.60;99.90;;;;;;5049835;28;20855;-53
2020/12/21 06:01:15;;;;;;;25.40;15.35;;;6.60;99.90;;;;;;5048850;28;20421;-53
2020/12/21 06:03:46;;;;;;;26.17;14.25;;;6.60;99.90;;;;;;5049545;28;20389;-53
2020/12/21 06:06:17;;;;;;;22.40;14.77;;;6.70;99.90;;;;;;5049093;28;20429;-53
2020/12/21 06:08:45;;;;;;;23.30;14.55;;;6.70;99.90;;;;;;5048729;28;20870;-53
2020/12/21 06:11:21;;;;;;;22.55;14.30;;;6.70;99.90;;;;;;5050344;28;20517;-52
2020/12/21 06:13:50;;;;;;;24.95;15.38;;;6.80;99.90;;;;;;5048413;28;20881;-52
2020/12/21 06:16:17;;;;;;;23.25;14.68;;;6.80;99.90;;;;;;5050140;28;20381;-52
2020/12/21 06:18:54;;;;;;;22.08;13.85;;;6.80;99.90;;;;;;5047911;28;20452;-53
2020/12/21 06:21:30;;;;;;;21.83;14.95;;;6.80;99.90;;;;;;5050266;28;20401;-52
2020/12/21 06:23:56;;;;;;;21.98;14.15;;;6.70;99.90;;;;;;5046395;28;20451;-52
2020/12/21 06:26:32;;;;;;;24.37;14.20;;;6.70;99.90;;;;;;5046963;28;20777;-52
2020/12/21 06:29:03;;;;;;;21.90;13.60;;;6.90;99.90;;;;;;5048174;28;20381;-52
2020/12/21 06:31:40;;;;;;;20.05;13.43;;;6.80;99.90;;;;;;5047679;28;20436;-53
2020/12/21 06:34:08;;;;;;;21.08;12.65;;;6.80;99.90;;;;;;5048462;28;20425;-53
2020/12/21 06:36:34;;;;;;;23.30;13.70;;;6.70;99.90;;;;;;5048009;28;20397;-55
2020/12/21 06:39:00;;;;;;;22.90;15.10;;;6.70;99.90;;;;;;5050162;28;20383;-53
2020/12/21 06:41:27;;;;;;;26.10;16.55;;;6.60;99.90;;;;;;5048652;28;20408;-53
2020/12/21 06:44:00;;;;;;;26.67;15.55;;;6.60;99.90;;;;;;5049222;28;20373;-53
2020/12/21 06:46:27;;;;;;;22.63;14.20;;;6.70;99.90;;;;;;5048293;28;20436;-53
2020/12/21 06:49:04;;;;;;;24.50;14.30;;;6.80;99.90;;;;;;5048527;28;20373;-53
2020/12/21 06:51:30;;;;;;;26.87;16.10;;;6.90;99.90;;;;;;5049091;28;20456;-53
2020/12/21 06:54:00;;;;;;;26.17;16.17;;;6.80;99.90;;;;;;5048055;28;20916;-53
2020/12/21 06:56:26;;;;;;;23.25;14.50;;;6.90;99.90;;;;;;5044444;28;20510;-54
2020/12/21 06:58:56;;;;;;;25.70;16.00;;;6.60;99.90;;;;;;5044807;28;21081;-53
2020/12/21 07:01:26;;;;;;;25.77;15.52;;;6.40;99.90;;;;;;5047867;28;20958;-53
2020/12/21 07:03:53;;;;;;;26.83;15.68;;;6.40;99.90;;;;;;5048442;28;20436;-53
2020/12/21 07:06:19;;;;;;;23.83;15.00;;;6.30;99.90;;;;;;5045764;28;20401;-53
2020/12/21 07:08:46;;;;;;;28.63;16.27;;;6.20;99.90;;;;;;5045870;28;20397;-53
2020/12/21 07:11:19;;;;;;;25.75;14.77;;;6.20;99.90;;;;;;5048315;28;20418;-53
2020/12/21 07:13:46;;;;;;;24.63;15.70;;;6.20;99.90;;;;;;5045535;28;20749;-53
2020/12/21 07:16:15;;;;;;;25.25;16.92;;;6.30;99.90;;;;;;5048696;28;20386;-53
2020/12/21 07:18:40;;;;;;;27.27;15.88;;;6.30;99.90;;;;;;5047148;28;20451;-53
2020/12/21 07:21:10;;;;;;;24.75;15.80;;;6.20;99.90;;;;;;5047680;28;20413;-53
2020/12/21 07:23:36;;;;;;;27.50;15.93;;;6.20;99.90;;;;;;5046684;28;20493;-55
2020/12/21 07:26:03;;;;;;;24.92;15.15;;;6.20;99.90;;;;;;5046483;28;21289;-53
2020/12/21 07:28:29;;;;;;;23.60;15.18;;;6.20;99.90;;;;;;5048037;28;20485;-54
2020/12/21 07:31:09;;;;;;;24.60;15.13;;;6.20;99.90;;;;;;5046153;28;20409;-53
2020/12/21 07:33:36;;;;;;;27.77;15.53;;;6.10;99.90;;;;;;5047340;28;20405;-53
2020/12/21 07:36:02;;;;;;;22.85;14.25;;;7.50;99.90;;;;;;5047150;28;20394;-53
2020/12/21 07:38:28;;;;;;;23.17;14.85;;;6.10;99.90;;;;;;5047092;28;20401;-53
2020/12/21 07:40:54;;;;;;;26.70;14.90;;;6.50;99.90;;;;;;5047618;28;20475;-54
2020/12/21 07:43:29;;;;;;;22.83;13.45;;;6.10;99.90;;;;;;5048219;28;20389;-53
2020/12/21 07:46:02;;;;;;;21.53;13.07;;;7.70;99.90;;;;;;5045882;28;20477;-53
2020/12/21 07:48:29;;;;;;;19.80;13.20;;;6.00;99.90;;;;;;5047094;28;20464;-53
2020/12/21 07:50:55;;;;;;;20.33;12.77;;;6.00;99.90;;;;;;5045594;28;20405;-52
2020/12/21 07:53:23;;;;;;;23.43;13.13;;;6.00;99.90;;;;;;5046641;28;20455;-53
2020/12/21 07:55:58;;;;;;;21.38;13.13;;;6.70;99.90;;;;;;5045104;28;20397;-52
2020/12/21 07:58:24;;;;;;;22.08;13.27;;;6.00;99.90;;;;;;5047662;28;20393;-52
2020/12/21 08:00:57;;;;;;;21.10;12.93;;;6.10;99.90;;;;;;5044688;28;21153;-53
2020/12/21 08:03:25;;;;;;;20.17;13.32;;;6.20;99.90;;;;;;5047030;28;20409;-53
2020/12/21 08:06:13;;;;;;;20.83;12.88;;;6.20;99.90;;;;;;5048058;28;20397;-53
2020/12/21 08:08:40;;;;;;;18.63;11.90;;;6.20;99.90;;;;;;5048335;28;20479;-53
2020/12/21 08:11:12;;;;;;;19.30;11.82;;;6.30;99.90;;;;;;5050769;28;20415;-53
2020/12/21 08:13:38;;;;;;;18.40;11.45;;;6.30;99.90;;;;;;5050744;28;20393;-53
2020/12/21 08:16:08;;;;;;;16.30;11.32;;;6.40;99.90;;;;;;5030961;28;20838;-53
2020/12/21 08:18:35;;;;;;;18.23;11.63;;;6.40;99.90;;;;;;5049291;28;20542;-55
2020/12/21 08:21:00;;;;;;;18.83;11.77;;;6.40;99.90;;;;;;5050529;28;20436;-53
2020/12/21 08:23:31;;;;;;;19.20;11.63;;;6.40;99.90;;;;;;5051091;28;20966;-53
2020/12/21 08:25:58;;;;;;;17.77;11.90;;;6.40;99.90;;;;;;5047348;28;20389;-52
2020/12/21 08:28:32;;;;;;;18.88;10.77;;;6.50;99.90;;;;;;5050012;28;20385;-52
2020/12/21 08:31:13;;;;;;;15.82;10.75;;;6.50;99.90;;;;;;5047003;28;20413;-52
2020/12/21 08:33:55;;;;;;;18.58;11.23;;;6.60;99.90;;;;;;5049571;28;20428;-53
2020/12/21 08:36:24;;;;;;;17.38;11.18;;;6.60;99.90;;;;;;5048307;28;20416;-53
2020/12/21 08:38:50;;;;;;;16.60;10.57;;;6.60;99.90;;;;;;5050703;28;20382;-53
2020/12/21 08:41:17;;;;;;;18.92;11.38;;;6.90;99.90;;;;;;5030015;28;20439;-53
2020/12/21 08:43:43;;;;;;;16.95;9.85;;;6.70;99.90;;;;;;5048196;28;20389;-53
2020/12/21 08:46:13;;;;;;;18.88;10.50;;;6.70;99.90;;;;;;5051360;28;20527;-52
2020/12/21 08:48:41;;;;;;;16.57;10.23;;;6.90;99.90;;;;;;5049143;28;20467;-53
2020/12/21 08:51:07;;;;;;;16.55;10.10;;;7.00;99.90;;;;;;5051196;28;20496;-52
2020/12/21 08:53:33;;;;;;;16.42;10.43;;;7.00;99.90;;;;;;5032474;28;20889;-55
2020/12/21 08:55:59;;;;;;;14.83;9.87;;;7.00;99.90;;;;;;5049097;28;20468;-53
2020/12/21 08:58:24;;;;;;;15.63;9.70;;;7.20;99.90;;;;;;5049503;28;20464;-53
2020/12/21 09:00:50;;;;;;;15.60;9.60;;;7.20;99.90;;;;;;5047713;28;20417;-55
2020/12/21 09:03:16;;;;;;;14.82;9.90;;;7.30;99.90;;;;;;5050142;28;20579;-53
2020/12/21 09:05:41;;;;;;;13.60;9.80;;;7.40;99.90;;;;;;5048589;28;20762;-53
2020/12/21 09:08:07;;;;;;;16.20;10.25;;;7.40;99.90;;;;;;5049580;28;21039;-53
2020/12/21 09:10:32;;;;;;;15.40;9.10;;;7.40;99.90;;;;;;5049310;28;20766;-55
2020/12/21 09:12:58;;;;;;;15.73;9.00;;;7.50;99.90;;;;;;5048082;28;20439;-54
2020/12/21 09:15:24;;;;;;;15.13;9.40;;;7.60;99.90;;;;;;5048710;28;20480;-53
2020/12/21 09:17:49;;;;;;;16.93;10.47;;;7.80;99.90;;;;;;5048628;28;20449;-53
2020/12/21 09:20:15;;;;;;;14.70;9.10;;;7.70;99.90;;;;;;5049421;28;21384;-53
2020/12/21 09:22:41;;;;;;;15.82;9.70;;;7.70;99.90;;;;;;5048771;28;20405;-53
2020/12/21 09:25:06;;;;;;;15.52;9.65;;;7.80;99.90;;;;;;5048087;28;20417;-53
2020/12/21 09:27:32;;;;;;;16.17;11.00;;;7.70;99.90;;;;;;5047691;28;20382;-53
2020/12/21 09:29:58;;;;;;;17.52;10.38;;;7.70;99.90;;;;;;5049640;28;20390;-53
2020/12/21 09:32:23;;;;;;;17.40;10.83;;;7.50;99.90;;;;;;5048280;28;20762;-54
2020/12/21 09:34:49;;;;;;;17.42;10.40;;;7.50;99.90;;;;;;5049585;28;20470;-54
2020/12/21 09:37:14;;;;;;;18.23;10.70;;;7.70;99.90;;;;;;5048687;28;20409;-53
2020/12/21 09:39:40;;;;;;;18.80;10.90;;;7.90;99.90;;;;;;5047200;28;20424;-53
2020/12/21 09:42:06;;;;;;;18.07;10.80;;;8.00;99.90;;;;;;5047132;28;20468;-53
2020/12/21 09:44:32;;;;;;;15.23;9.57;;;8.00;99.90;;;;;;5050425;28;20993;-53
2020/12/21 09:46:57;;;;;;;16.75;10.27;;;7.90;99.90;;;;;;5048040;28;20401;-53
2020/12/21 09:49:23;;;;;;;19.67;10.80;;;7.90;99.90;;;;;;5050590;28;20881;-53
2020/12/21 09:51:52;;;;;;;17.98;10.45;;;8.00;99.90;;;;;;5048311;28;20406;-53
2020/12/21 09:54:18;;;;;;;16.88;10.38;;;8.00;99.90;;;;;;5049038;28;20401;-54
2020/12/21 09:56:50;;;;;;;15.95;9.63;;;8.10;99.90;;;;;;5049637;28;20365;-53
2020/12/21 09:59:16;;;;;;;17.17;10.40;;;8.20;99.90;;;;;;5049164;28;20404;-54
2020/12/21 10:01:42;;;;;;;16.70;11.15;;;8.30;99.90;;;;;;5048007;28;20417;-53
2020/12/21 10:04:08;;;;;;;18.92;11.60;;;8.40;99.90;;;;;;5049534;28;20934;-53
2020/12/21 10:06:33;;;;;;;22.83;12.70;;;8.50;99.90;;;;;;5049103;28;20786;-55
2020/12/21 10:08:59;;;;;;;19.42;11.85;;;8.50;99.90;;;;;;5047269;28;20409;-53
2020/12/21 10:11:25;;;;;;;15.83;10.20;;;8.50;99.90;;;;;;5049265;28;20389;-53
2020/12/21 10:13:50;;;;;;;16.92;9.95;;;8.30;99.90;;;;;;5048060;28;20431;-53
2020/12/21 10:16:16;;;;;;;18.07;10.50;;;8.20;99.90;;;;;;5048703;28;20393;-53
2020/12/21 10:18:42;;;;;;;14.90;9.00;;;8.00;99.90;;;;;;5047402;28;20400;-53
2020/12/21 10:21:07;;;;;;;16.00;9.97;;;8.00;99.90;;;;;;5031282;28;20755;-53
2020/12/21 10:23:33;;;;;;;14.38;9.55;;;8.10;99.90;;;;;;5048342;28;20960;-53
2020/12/21 10:26:03;;;;;;;14.93;9.90;;;8.10;99.90;;;;;;5048139;28;20429;-53
2020/12/21 10:28:28;;;;;;;15.50;9.75;;;8.10;99.90;;;;;;5049211;28;20369;-53
2020/12/21 10:30:54;;;;;;;16.10;9.17;;;8.10;99.90;;;;;;5046969;28;20909;-53
2020/12/21 10:33:19;;;;;;;13.90;9.23;;;8.20;99.90;;;;;;5048782;28;20932;-54
2020/12/21 10:35:45;;;;;;;13.93;9.20;;;8.10;99.90;;;;;;5047043;28;20393;-54
2020/12/21 10:38:11;;;;;;;15.27;9.40;;;8.10;99.90;;;;;;5049176;28;20385;-53
2020/12/21 10:40:36;;;;;;;15.60;9.10;;;8.30;99.90;;;;;;5048437;28;20731;-55
2020/12/21 10:43:02;;;;;;;14.43;8.52;;;8.40;99.90;;;;;;5047780;28;20937;-53
2020/12/21 10:45:28;;;;;;;13.73;8.95;;;8.40;99.90;;;;;;5048249;28;20492;-55
2020/12/21 10:47:53;;;;;;;16.27;9.20;;;8.50;99.90;;;;;;5047432;28;20886;-54
2020/12/21 10:50:19;;;;;;;15.27;9.15;;;8.50;99.90;;;;;;5049211;28;20481;-53
2020/12/21 10:52:45;;;;;;;14.90;9.10;;;8.60;99.90;;;;;;5046983;28;20759;-54
2020/12/21 10:55:11;;;;;;;15.98;8.82;;;8.60;99.90;;;;;;5048653;28;20907;-54
2020/12/21 10:57:36;;;;;;;13.70;8.43;;;8.80;99.90;;;;;;5047500;28;20402;-55
2020/12/21 11:00:04;;;;;;;14.77;9.40;;;8.90;99.90;;;;;;5046892;28;21376;-53
2020/12/21 11:02:30;;;;;;;14.25;9.35;;;9.10;99.90;;;;;;5049195;28;20455;-54
2020/12/21 11:04:55;;;;;;;15.17;9.30;;;9.10;99.90;;;;;;5045726;28;20494;-53
2020/12/21 11:07:21;;;;;;;13.85;9.18;;;9.20;99.90;;;;;;5046766;28;20917;-54
2020/12/21 11:09:46;;;;;;;16.50;9.67;;;9.30;99.90;;;;;;5047239;28;20409;-53
2020/12/21 11:12:12;;;;;;;16.00;9.17;;;9.30;99.90;;;;;;5047600;28;20409;-54
2020/12/21 11:14:38;;;;;;;13.20;9.10;;;9.50;99.90;;;;;;5047209;28;20393;-55
2020/12/21 11:17:03;;;;;;;13.60;9.20;;;9.50;99.90;;;;;;5046025;28;20411;-54
2020/12/21 11:19:29;;;;;;;13.27;6.97;;;9.60;99.90;;;;;;5049514;28;20766;-53
2020/12/21 11:21:55;;;;;;;13.57;8.40;;;9.80;99.90;;;;;;5046942;28;20887;-53
2020/12/21 11:24:20;;;;;;;12.85;6.90;;;9.80;99.90;;;;;;5048295;28;20393;-53
2020/12/21 11:26:51;;;;;;;13.80;7.40;;;9.90;99.90;;;;;;5048344;28;20496;-53
2020/12/21 11:29:16;;;;;;;11.67;7.33;;;10.00;99.90;;;;;;5047560;28;20429;-53
2020/12/21 11:31:42;;;;;;;15.05;6.90;;;10.00;99.90;;;;;;5046986;28;20983;-53
2020/12/21 11:34:07;;;;;;;11.70;6.83;;;10.10;99.90;;;;;;5038224;28;20498;-53
2020/12/21 11:36:33;;;;;;;12.65;7.57;;;10.00;99.90;;;;;;5048060;28;20378;-53
2020/12/21 11:38:59;;;;;;;11.87;7.27;;;10.00;99.90;;;;;;5046940;28;20905;-53
2020/12/21 11:41:30;;;;;;;12.18;6.90;;;9.90;99.90;;;;;;5048692;28;20462;-53
2020/12/21 11:43:56;;;;;;;13.18;7.30;;;9.80;99.90;;;;;;5050448;28;20400;-53
2020/12/21 11:46:32;;;;;;;12.00;7.60;;;9.70;99.90;;;;;;5051913;28;20394;-53
2020/12/21 11:48:59;;;;;;;12.07;7.10;;;9.50;99.90;;;;;;5049499;28;20433;-53
2020/12/21 11:51:26;;;;;;;16.02;7.90;;;9.40;99.90;;;;;;5048065;28;20469;-53
2020/12/21 11:53:52;;;;;;;12.00;7.90;;;9.40;99.90;;;;;;5044992;28;20433;-53
2020/12/21 11:56:19;;;;;;;14.80;7.90;;;9.30;99.90;;;;;;5029346;28;20426;-53
2020/12/21 11:58:44;;;;;;;16.30;8.88;;;9.40;99.90;;;;;;5045216;28;20412;-54
2020/12/21 12:01:10;;;;;;;15.37;9.20;;;9.40;99.90;;;;;;5050370;28;20409;-53
2020/12/21 12:03:36;;;;;;;13.35;8.02;;;9.30;99.90;;;;;;5048804;28;20401;-53
2020/12/21 12:06:02;;;;;;;12.80;8.40;;;9.30;99.90;;;;;;5046330;28;20409;-53
2020/12/21 12:08:27;;;;;;;10.57;6.70;;;9.50;99.90;;;;;;5048634;28;20397;-53
2020/12/21 12:10:53;;;;;;;10.07;6.40;;;9.50;99.90;;;;;;5031038;28;20447;-53
2020/12/21 12:13:19;;;;;;;10.63;6.18;;;9.50;99.90;;;;;;5044547;28;20389;-53
2020/12/21 12:15:45;;;;;;;7.80;4.27;;;9.50;99.90;;;;;;5046502;28;20755;-53
2020/12/21 12:18:10;;;;;;;6.80;3.05;;;9.70;99.90;;;;;;5048883;28;20391;-53
2020/12/21 12:20:36;;;;;;;6.32;3.28;;;9.80;99.90;;;;;;5046609;28;20514;-53
2020/12/21 12:23:02;;;;;;;6.87;3.33;;;9.70;99.90;;;;;;5046841;28;21033;-53
2020/12/21 12:25:28;;;;;;;6.35;3.20;;;9.90;99.90;;;;;;5047129;28;20389;-52
2020/12/21 12:27:53;;;;;;;6.72;3.50;;;9.80;99.90;;;;;;5047906;28;20438;-53
2020/12/21 12:30:19;;;;;;;6.43;3.57;;;9.70;99.90;;;;;;5051125;28;20866;-53
2020/12/21 12:32:44;;;;;;;6.95;3.60;;;9.60;99.90;;;;;;5051468;28;20424;-52
2020/12/21 12:35:10;;;;;;;6.77;3.80;;;9.60;99.90;;;;;;5049549;28;20394;-53
2020/12/21 12:37:35;;;;;;;6.90;3.60;;;9.70;99.90;;;;;;5049149;28;20788;-53
2020/12/21 12:40:02;;;;;;;7.10;3.95;;;9.70;99.90;;;;;;5048462;28;21553;-52
2020/12/21 12:42:28;;;;;;;7.53;4.10;;;9.80;99.90;;;;;;5046805;28;20413;-53